NEODyS-2

Near Earth Objects - Dynamic Site
NEODyS ∴ Observatories ∴ Site 691 ∴ Obs & residuals
Contact »
691  ▹ 
OBSERVATIONS AND RESIDUALS

691-Steward Observatory, Kitt Peak-Spacewatch

Detections | Residuals | Detections & Residuals

[1-200] [201-400] [401-600] [601-800] [801-1000] [1001-1200] [1201-1400] [1401-1600] [1601-1800] [1801-2000] [2001-2200] [2201-2400] [2401-2600] [2601-2800] [2801-3000] [3001-3200] [3201-3400] [3401-3600] [3601-3800] [3801-4000] [4001-4200] [4201-4400] [4401-4600] [4601-4800] [4801-5000] [5001-5200] [5201-5400] [5401-5600] [5601-5800] [5801-6000] [6001-6200] [6201-6400] [6401-6600] [6601-6800] [6801-7000] [7001-7200] [7201-7400] [7401-7600] [7601-7800] [7801-8000] [8001-8200] [8201-8400] [8401-8600] [8601-8800] [8801-9000] [9001-9200] [9201-9400] [9401-9600] [9601-9800] [9801-10000] [10001-10200] [10201-10400] [10401-10600] [10601-10800] [10801-11000] [11001-11200] [11201-11400] [11401-11600] [11601-11800] [11801-12000] [12001-12200] [12201-12400] [12401-12600] [12601-12800] [12801-13000] [13001-13200] [13201-13400] [13401-13600] [13601-13800] [13801-14000] [14001-14200] [14201-14400] [14401-14600] [14601-14800] [14801-15000] [15001-15200] [15201-15400] [15401-15600] [15601-15800] [15801-16000] [16001-16200] [16201-16400] [16401-16600] [16601-16800] [16801-17000] [17001-17200] [17201-17400] [17401-17600] [17601-17800] [17801-18000] [18001-18200] [18201-18400] [18401-18600] [18601-18800] [18801-19000] [19001-19200] [19201-19400] [19401-19600] [19601-19800] [19801-20000] [20001-20200] [20201-20400] [20401-20600] [20601-20800] [20801-21000] [21001-21200] [21201-21400] [21401-21600] [21601-21800] [21801-22000] [22001-22200] [22201-22400] [22401-22600] [22601-22800] [22801-23000] [23001-23200] [23201-23400] [23401-23600] [23601-23800] [23801-24000] [24001-24200] [24201-24400] [24401-24600] [24601-24800] [24801-25000] [25001-25200] [25201-25400] [25401-25600] [25601-25800] [25801-26000] [26001-26200] [26201-26400] [26401-26600] [26601-26800] [26801-27000] [27001-27200] [27201-27400] [27401-27600] [27601-27800] [27801-28000] [28001-28200] [28201-28400] [28401-28600] [28601-28800] [28801-29000] [29001-29200] [29201-29400] [29401-29600] [29601-29800] [29801-30000] [30001-30200] [30201-30400] [30401-30600] [30601-30800] [30801-31000] [31001-31200] [31201-31400] [31401-31600] [31601-31800] [31801-32000] [32001-32200] [32201-32400] [32401-32600] [32601-32800] [32801-33000] [33001-33200] [33201-33400] [33401-33600] [33601-33800] [33801-34000] [34001-34200] [34201-34400] [34401-34600] [34601-34800] [34801-35000] [35001-35200] [35201-35400] [35401-35600] [35601-35800] [35801-36000] [36001-36200] [36201-36400] [36401-36600] [36601-36800] [36801-37000] [37001-37200] [37201-37400] [37401-37600] [37601-37800] [37801-38000] [38001-38200] [38201-38400] [38401-38600] [38601-38800] [38801-39000] [39001-39200] [39201-39400] [39401-39600] [39601-39800] [39801-40000] [40001-40200] [40201-40400] [40401-40600] [40601-40800] [40801-41000] [41001-41200] [41201-41400] [41401-41600] [41601-41800] [41801-42000] [42001-42200] [42201-42400] [42401-42600] [42601-42800] [42801-43000] [43001-43200] [43201-43400] [43401-43600] [43601-43800] [43801-44000] [44001-44200] [44201-44400] [44401-44600] [44601-44800] [44801-45000] [45001-45200] [45201-45400] [45401-45600] [45601-45800] [45801-46000] [46001-46200] [46201-46400] [46401-46600] [46601-46800] [46801-47000] [47001-47200] [47201-47400] [47401-47600] [47601-47800] [47801-48000] [48001-48200] [48201-48400] [48401-48600] [48601-48800] [48801-49000] [49001-49200] [49201-49400] [49401-49600] [49601-49800] [49801-50000] [50001-50200] [50201-50388]

Designation T Tech N Date Right Ascension Declination Apparent Magnitude Star Catalog Site code χ Used A Used M
yr-mo-day precision hr:min:sec precision rms F bias residual deg min sec precision rms F bias residual mag/col rms residual
2017BN3 O C H 2017-01-29.21921 1.000E-05 05:33:05.750 1.500E-01 0.500 F -0.181 -0.634 +05° 10' 51.50" 1.000E-01 0.500 F 0.144 -0.808 21.3 R 0.70 -0.35 o 691 2.07 Yes Yes
2016PZ66 O C H 2017-01-29.22740 1.000E-05 04:44:04.070 1.500E-01 0.500 F -0.179 0.179 -04° 02' 54.50" 1.000E-01 0.500 F -0.020 0.197 20.1 R 0.70 0.16 o 691 0.53 Yes Yes
2017BN3 O C H 2017-01-29.23126 1.000E-05 05:33:07.280 1.500E-01 0.500 F -0.181 -0.270 +05° 11' 02.40" 1.000E-01 0.500 F 0.144 -0.382 o 691 0.94 Yes No
2017BS6 O C H 2017-01-29.23968 1.000E-05 08:20:26.170 1.500E-01 0.500 F 0.024 -0.486 +06° 20' 09.60" 1.000E-01 0.500 F 0.092 -0.556 20.2 R 0.70 -0.36 o 691 1.48 Yes Yes
2017AM4 O C H 2017-01-29.24199 1.000E-05 08:18:01.520 1.500E-01 0.500 F 0.136 -0.130 +11° 15' 25.80" 1.000E-01 0.500 F 0.063 -0.162 20.9 R 0.70 0.81 o 691 0.42 Yes Yes
2017BS6 O C H 2017-01-29.24785 1.000E-05 08:20:24.210 1.500E-01 0.500 F 0.024 -1.611 +06° 19' 43.90" 1.000E-01 0.500 F 0.092 -2.063 20.3 R 0.70 -0.26 o 691 5.22 No Yes
2017AM4 O C H 2017-01-29.25017 1.000E-05 08:18:00.160 1.500E-01 0.500 F 0.136 -0.356 +11° 15' 50.90" 1.000E-01 0.500 F 0.063 0.049 20.8 R 0.70 0.71 o 691 0.72 Yes Yes
2017BS6 O C H 2017-01-29.25602 1.000E-05 08:20:22.450 1.500E-01 0.500 F 0.024 0.277 +06° 19' 21.70" 1.000E-01 0.500 F 0.092 -0.058 o 691 0.57 Yes No
2017AM4 O C H 2017-01-29.25833 1.000E-05 08:17:58.810 1.500E-01 0.500 F 0.136 -0.476 +11° 16' 16.30" 1.000E-01 0.500 F 0.063 0.625 20.9 R 0.70 0.81 o 691 1.57 Yes Yes
2016PN38 O C H 2017-01-29.26913 1.000E-05 08:33:47.670 1.500E-01 0.500 F 0.034 0.023 +25° 29' 51.90" 1.000E-01 0.500 F 0.281 0.154 20.7 R 0.70 0.14 o 691 0.31 Yes Yes
2016LM8 O C H 2017-01-29.27278 1.000E-05 08:05:05.440 1.500E-01 0.500 F -0.078 0.131 +29° 13' 44.40" 1.000E-01 0.500 F 0.222 -0.201 19.4 R 0.70 -0.08 o 691 0.48 Yes Yes
2016PN38 O C H 2017-01-29.28008 1.000E-05 08:33:46.600 1.500E-01 0.500 F 0.034 -0.161 +25° 29' 48.50" 1.000E-01 0.500 F 0.281 0.126 21.1 R 0.70 0.54 o 691 0.41 Yes Yes
2016LM8 O C H 2017-01-29.28390 1.000E-05 08:05:04.250 1.500E-01 0.500 F -0.078 -0.125 +29° 13' 52.10" 1.000E-01 0.500 F 0.222 0.057 19.4 R 0.70 -0.08 o 691 0.28 Yes Yes
2016PN38 O C H 2017-01-29.29122 1.000E-05 08:33:45.540 1.500E-01 0.500 F 0.065 0.014 +25° 29' 44.80" 1.000E-01 0.500 F 0.292 -0.123 20.5 R 0.70 -0.06 o 691 0.25 Yes Yes
2016LM8 O C H 2017-01-29.29500 1.000E-05 08:05:03.080 1.500E-01 0.500 F -0.078 -0.152 +29° 13' 59.40" 1.000E-01 0.500 F 0.222 -0.042 o 691 0.32 Yes No
2001AD2 O C 2017-01-29.30886 1.000E-05 08:51:22.390 1.500E-01 0.500 F 0.098 -0.428 +13° 25' 24.80" 1.000E-01 0.500 F 0.150 0.083 20.2 V 0.70 -0.02 o 691 0.87 Yes Yes
2001AD2 O C 2017-01-29.31822 1.000E-05 08:51:20.540 1.500E-01 0.500 F 0.098 -0.308 +13° 25' 32.40" 1.000E-01 0.500 F 0.150 -0.148 20.4 V 0.70 0.18 o 691 0.69 Yes Yes
2001AD2 O C 2017-01-29.32758 1.000E-05 08:51:18.690 1.500E-01 0.500 F 0.098 -0.190 +13° 25' 40.30" 1.000E-01 0.500 F 0.150 -0.070 20.2 V 0.70 -0.02 o 691 0.40 Yes Yes
2016WR48 O C H 2017-01-29.33723 1.000E-05 06:41:52.180 1.500E-01 0.500 F -0.047 0.000 +30° 03' 56.50" 1.000E-01 0.500 F 0.081 0.024 o 691 0.05 Yes No
2017BM31 O C H 2017-01-29.34105 1.000E-05 07:34:54.750 1.500E-01 0.500 F -0.059 0.408 +18° 38' 49.90" 1.000E-01 0.500 F 0.260 -0.365 o 691 1.10 Yes No
2017AG5 O C H 2017-01-29.34475 1.000E-05 07:41:09.120 1.500E-01 0.500 F -0.052 0.020 +28° 20' 43.30" 1.000E-01 0.500 F 0.184 -0.034 19.0 R 0.70 -0.20 o 691 0.08 Yes Yes
2016WR48 O C H 2017-01-29.34872 1.000E-05 06:41:53.560 1.500E-01 0.500 F -0.047 0.319 +30° 04' 18.50" 1.000E-01 0.500 F 0.081 0.005 21.0 R 0.70 1.08 o 691 0.70 Yes Yes
2017BM31 O C H 2017-01-29.35252 1.000E-05 07:34:53.280 1.500E-01 0.500 F -0.059 1.289 +18° 38' 58.50" 1.000E-01 0.500 F 0.260 -0.610 o 691 2.86 Yes No
2017AG5 O C H 2017-01-29.35617 1.000E-05 07:41:09.470 1.500E-01 0.500 F -0.052 -0.242 +28° 20' 37.60" 1.000E-01 0.500 F 0.184 -0.116 19.0 R 0.70 -0.20 o 691 0.54 Yes Yes
2016WR48 O C H 2017-01-29.36014 1.000E-05 06:41:54.840 1.500E-01 0.500 F -0.047 -0.638 +30° 04' 39.80" 1.000E-01 0.500 F 0.081 -0.527 20.5 R 0.70 0.58 o 691 1.86 Yes Yes
2017BM31 O C H 2017-01-29.36393 1.000E-05 07:34:51.600 1.500E-01 0.500 F -0.059 -0.962 +18° 39' 07.60" 1.000E-01 0.500 F 0.260 -0.292 21.1 R 0.70 0.26 o 691 2.02 Yes Yes
2017AG5 O C H 2017-01-29.36759 1.000E-05 07:41:09.860 1.500E-01 0.500 F -0.052 -0.097 +28° 20' 32.10" 1.000E-01 0.500 F 0.184 0.099 18.8 R 0.70 -0.40 o 691 0.28 Yes Yes
2017BL30 O C H 2017-01-29.37205 1.000E-05 09:05:09.270 1.500E-01 0.500 F 0.092 -0.104 +17° 13' 02.90" 1.000E-01 0.500 F 0.186 0.173 19.7 R 0.70 0.27 o 691 0.40 Yes Yes
2017BH3 O C H 2017-01-29.37850 1.000E-05 09:10:33.610 1.500E-01 0.500 F 0.012 -0.035 +16° 26' 38.40" 1.000E-01 0.500 F 0.190 0.683 o 691 1.39 Yes No
2017BX5 O C H 2017-01-29.38095 1.000E-05 09:07:16.240 1.500E-01 0.500 F 0.066 -0.516 +10° 40' 40.80" 1.000E-01 0.500 F 0.160 -0.494 21.2 R 0.70 0.45 o 691 1.44 Yes Yes
2017BL30 O C H 2017-01-29.38391 1.000E-05 09:05:07.110 1.500E-01 0.500 F 0.092 0.140 +17° 12' 58.30" 1.000E-01 0.500 F 0.186 0.206 19.5 R 0.70 0.07 o 691 0.50 Yes Yes
2017BH3 O C H 2017-01-29.39036 1.000E-05 09:10:34.000 1.500E-01 0.500 F 0.012 0.121 +16° 27' 29.50" 1.000E-01 0.500 F 0.190 0.828 21.3 R 0.70 0.27 o 691 1.70 Yes Yes
2017BL30 O C H 2017-01-29.39578 1.000E-05 09:05:04.930 1.500E-01 0.500 F 0.092 0.056 +17° 12' 53.30" 1.000E-01 0.500 F 0.186 -0.076 o 691 0.19 Yes No
2017BH3 O C H 2017-01-29.40225 1.000E-05 09:10:34.380 1.500E-01 0.500 F 0.012 0.041 +16° 28' 20.00" 1.000E-01 0.500 F 0.190 0.296 22.2 R 0.70 1.17 o 691 0.61 Yes Yes
2017BX5 O C H 2017-01-29.40469 1.000E-05 09:07:24.540 1.500E-01 0.500 F 0.066 0.533 +10° 41' 14.40" 1.000E-01 0.500 F 0.160 0.399 20.5 R 0.70 -0.25 o 691 1.34 Yes Yes
2017BE30 O C H 2017-01-29.41122 1.000E-05 09:23:08.100 1.500E-01 0.500 F 0.043 0.258 +09° 56' 31.00" 1.000E-01 0.500 F 0.269 -0.304 o 691 0.80 Yes No
2017BE30 O C H 2017-01-29.41436 1.000E-05 09:23:07.250 1.500E-01 0.500 F 0.043 0.180 +09° 56' 27.10" 1.000E-01 0.500 F 0.269 0.605 21.9 R 0.70 0.47 o 691 1.27 Yes Yes
2017BE30 O C H 2017-01-29.42482 1.000E-05 09:23:04.360 1.500E-01 0.500 F 0.043 -1.110 +09° 56' 11.20" 1.000E-01 0.500 F 0.269 0.738 22.0 R 0.70 0.57 o 691 2.68 Yes Yes
2007WV4 O C H 2017-01-30.10545 1.000E-05 02:39:28.540 1.500E-01 0.500 F -0.240 -0.448 -10° 53' 50.00" 1.000E-01 0.500 F 0.114 0.089 o 691 0.92 Yes No
2007WV4 O C H 2017-01-30.11657 1.000E-05 02:39:29.020 1.500E-01 0.500 F -0.240 -0.204 -10° 54' 03.60" 1.000E-01 0.500 F 0.114 0.154 21.9 R 0.70 0.76 o 691 0.51 Yes Yes
2007WV4 O C H 2017-01-30.12768 1.000E-05 02:39:29.520 1.500E-01 0.500 F -0.240 0.322 -10° 54' 17.10" 1.000E-01 0.500 F 0.114 0.296 o 691 0.87 Yes No
2017BR31 O C H 2017-01-30.14223 1.000E-05 03:38:57.900 1.500E-01 0.500 F -0.161 -0.441 -05° 26' 58.70" 1.000E-01 0.500 F 0.252 -0.451 o 691 1.27 Yes No
2016PZ66 O C H 2017-01-30.14545 1.000E-05 04:45:49.910 1.500E-01 0.500 F -0.159 0.113 -04° 13' 00.40" 1.000E-01 0.500 F -0.050 0.193 20.0 R 0.70 0.01 o 691 0.45 Yes Yes
2017BR31 O C H 2017-01-30.15574 1.000E-05 03:39:04.390 1.500E-01 0.500 F -0.161 -0.328 -05° 26' 52.20" 1.000E-01 0.500 F 0.252 0.056 20.6 R 0.70 0.03 o 691 0.67 Yes Yes
2016PZ66 O C H 2017-01-30.15894 1.000E-05 04:45:51.370 1.500E-01 0.500 F -0.159 -0.070 -04° 13' 09.10" 1.000E-01 0.500 F -0.050 0.088 20.1 R 0.70 0.11 o 691 0.23 Yes Yes
2017BR31 O C H 2017-01-30.16923 1.000E-05 03:39:10.930 1.500E-01 0.500 F -0.161 0.618 -05° 26' 46.60" 1.000E-01 0.500 F 0.252 -0.353 20.8 R 0.70 0.23 o 691 1.43 Yes Yes
2016PZ66 O C H 2017-01-30.17245 1.000E-05 04:45:52.870 1.500E-01 0.500 F -0.159 0.308 -04° 13' 17.20" 1.000E-01 0.500 F -0.050 0.581 19.9 R 0.70 -0.09 o 691 1.32 Yes Yes
2017BN3 O C H 2017-01-30.17619 1.000E-05 05:35:37.710 1.500E-01 0.500 F -0.190 0.465 +05° 25' 26.20" 1.000E-01 0.500 F 0.140 0.217 o 691 1.04 Yes No
2017BN3 O C H 2017-01-30.19441 1.000E-05 05:35:40.100 1.500E-01 0.500 F -0.190 -0.995 +05° 25' 42.80" 1.000E-01 0.500 F 0.140 -0.436 o 691 2.20 Yes No
2017BN3 O C H 2017-01-30.21262 1.000E-05 05:35:42.720 1.500E-01 0.500 F -0.190 0.879 +05° 26' 00.80" 1.000E-01 0.500 F 0.140 0.377 o 691 1.93 Yes No
2017AN19 O C H 2017-01-30.23151 1.000E-05 07:02:06.600 1.500E-01 0.500 F -0.168 -0.268 +07° 51' 12.30" 1.000E-01 0.500 F 0.103 -0.060 21.6 R 0.70 0.81 o 691 0.56 Yes Yes
2017AG5 O C H 2017-01-30.23935 1.000E-05 07:41:57.600 1.500E-01 0.500 F -0.052 0.074 +28° 14' 27.10" 1.000E-01 0.500 F 0.184 -0.204 o 691 0.44 Yes No
2017AN19 O C H 2017-01-30.24435 1.000E-05 07:02:04.960 1.500E-01 0.500 F -0.168 -0.122 +07° 51' 04.40" 1.000E-01 0.500 F 0.103 0.425 o 691 0.90 Yes No
2017BM31 O C H 2017-01-30.24822 1.000E-05 07:32:58.350 1.500E-01 0.500 F -0.059 -0.334 +18° 50' 43.50" 1.000E-01 0.500 F 0.260 -0.192 o 691 0.77 Yes No
2017AG5 O C H 2017-01-30.25217 1.000E-05 07:41:57.980 1.500E-01 0.500 F -0.052 0.048 +28° 14' 22.70" 1.000E-01 0.500 F 0.184 0.493 19.3 R 0.70 0.00 o 691 0.99 Yes Yes
2017AN19 O C H 2017-01-30.25720 1.000E-05 07:02:03.300 1.500E-01 0.500 F -0.168 -0.261 +07° 50' 55.60" 1.000E-01 0.500 F 0.103 0.023 20.5 R 0.70 -0.29 o 691 0.53 Yes Yes
2017BM31 O C H 2017-01-30.26084 1.000E-05 07:32:56.620 1.500E-01 0.500 F -0.059 -0.770 +18° 50' 54.20" 1.000E-01 0.500 F 0.260 0.536 19.7 R 0.70 -1.15 o 691 1.88 Yes Yes
2017AG5 O C H 2017-01-30.26462 1.000E-05 07:41:58.340 1.500E-01 0.500 F -0.052 -0.064 +28° 14' 17.30" 1.000E-01 0.500 F 0.184 0.175 19.7 R 0.70 0.40 o 691 0.37 Yes Yes
2017BH3 O C H 2017-01-30.28284 1.000E-05 09:11:19.980 1.500E-01 0.500 F 0.087 -1.105 +17° 32' 11.00" 1.000E-01 0.500 F 0.208 -0.899 o 691 2.90 Yes No
2017BH3 O C H 2017-01-30.29608 1.000E-05 09:11:20.470 1.500E-01 0.500 F 0.087 -0.178 +17° 33' 09.30" 1.000E-01 0.500 F 0.208 -0.888 21.2 R 0.70 0.23 o 691 1.85 Yes Yes
2017BH3 O C H 2017-01-30.30954 1.000E-05 09:11:20.890 1.500E-01 0.500 F 0.087 -0.284 +17° 34' 09.00" 1.000E-01 0.500 F 0.208 -0.370 21.7 R 0.70 0.73 o 691 0.95 Yes Yes
2017BS6 O C H 2017-01-30.31217 1.000E-05 08:16:30.780 1.500E-01 0.500 F 0.012 0.657 +05° 26' 50.60" 1.000E-01 0.500 F 0.025 0.399 20.2 R 0.70 -0.38 o 691 1.54 Yes Yes
2017BS6 O C H 2017-01-30.32324 1.000E-05 08:16:28.140 1.500E-01 0.500 F 0.012 -0.190 +05° 26' 17.30" 1.000E-01 0.500 F 0.025 0.316 20.6 R 0.70 0.02 o 691 0.74 Yes Yes
2017BS6 O C H 2017-01-30.33429 1.000E-05 08:16:25.550 1.500E-01 0.500 F 0.012 -0.385 +05° 25' 43.90" 1.000E-01 0.500 F 0.025 0.092 20.9 R 0.70 0.32 o 691 0.80 Yes Yes
2017AM4 O C H 2017-01-30.34874 1.000E-05 08:15:03.160 1.500E-01 0.500 F -0.047 0.040 +12° 11' 27.60" 1.000E-01 0.500 F 0.124 0.072 20.7 R 0.70 0.59 o 691 0.17 Yes Yes
2017BD30 O C H 2017-01-30.35104 1.000E-05 08:43:24.890 1.500E-01 0.500 F 0.048 -0.925 +10° 15' 41.90" 1.000E-01 0.500 F 0.247 0.122 21.4 R 0.70 0.74 o 691 1.93 Yes Yes
2017AM4 O C H 2017-01-30.35727 1.000E-05 08:15:01.750 1.500E-01 0.500 F -0.047 -0.069 +12° 11' 53.40" 1.000E-01 0.500 F 0.124 0.027 20.5 R 0.70 0.39 o 691 0.15 Yes Yes
2017BD30 O C H 2017-01-30.35955 1.000E-05 08:43:22.170 1.500E-01 0.500 F 0.048 -0.315 +10° 15' 36.70" 1.000E-01 0.500 F 0.247 0.102 20.6 R 0.70 -0.06 o 691 0.68 Yes Yes
2017AM4 O C H 2017-01-30.36578 1.000E-05 08:15:00.370 1.500E-01 0.500 F -0.047 0.205 +12° 12' 18.80" 1.000E-01 0.500 F 0.124 -0.351 20.5 R 0.70 0.39 o 691 0.82 Yes Yes
2017BD30 O C H 2017-01-30.36805 1.000E-05 08:43:19.410 1.500E-01 0.500 F 0.048 -0.377 +10° 15' 31.40" 1.000E-01 0.500 F 0.247 -0.016 21.7 R 0.70 1.04 o 691 0.79 Yes Yes
2016YP4 O C H 2017-01-30.37993 1.000E-05 09:21:29.990 1.500E-01 0.500 F 0.153 -0.264 -12° 35' 14.30" 1.000E-01 0.500 F -0.010 -0.207 20.8 R 0.70 0.25 o 691 0.68 Yes Yes
2017BU31 O C H 2017-01-30.38263 1.000E-05 09:44:10.220 1.500E-01 0.500 F 0.045 0.111 +00° 44' 31.00" 1.000E-01 0.500 F 0.217 0.022 20.2 R 0.70 0.38 o 691 0.23 Yes Yes
2017BY O C H 2017-01-30.38586 1.000E-05 09:48:17.600 1.500E-01 0.500 F -0.029 0.022 -02° 14' 57.10" 1.000E-01 0.500 F 0.235 -0.160 20.9 R 0.70 0.56 o 691 0.33 Yes Yes
2016YP4 O C H 2017-01-30.39183 1.000E-05 09:21:35.570 1.500E-01 0.500 F 0.153 1.015 -12° 35' 23.00" 1.000E-01 0.500 F -0.010 -0.369 20.7 R 0.70 0.15 o 691 2.20 Yes Yes
2017BU31 O C H 2017-01-30.39453 1.000E-05 09:44:10.000 1.500E-01 0.500 F 0.045 -0.042 +00° 44' 16.20" 1.000E-01 0.500 F 0.217 0.226 20.3 R 0.70 0.48 o 691 0.46 Yes Yes
2017BY O C H 2017-01-30.39776 1.000E-05 09:48:15.310 1.500E-01 0.500 F -0.029 0.398 -02° 14' 46.10" 1.000E-01 0.500 F 0.235 -0.238 20.8 R 0.70 0.46 o 691 0.94 Yes Yes
2016YP4 O C H 2017-01-30.40375 1.000E-05 09:21:41.170 1.500E-01 0.500 F 0.153 2.066 -12° 35' 31.10" 1.000E-01 0.500 F -0.010 -0.203 21.5 R 0.70 0.95 o 691 4.08 No Yes
2017BU31 O C H 2017-01-30.40645 1.000E-05 09:44:09.790 1.500E-01 0.500 F 0.045 -0.061 +00° 44' 00.90" 1.000E-01 0.500 F 0.217 -0.044 20.3 R 0.70 0.48 o 691 0.15 Yes Yes
2017BY O C H 2017-01-30.40970 1.000E-05 09:48:13.000 1.500E-01 0.500 F -0.029 0.401 -02° 14' 34.90" 1.000E-01 0.500 F 0.235 -0.174 20.8 R 0.70 0.46 o 691 0.89 Yes Yes
2017AH13 O C H 2017-01-30.41228 1.000E-05 10:18:45.920 1.500E-01 0.500 F 0.130 0.382 +04° 49' 03.50" 1.000E-01 0.500 F 0.126 0.029 20.5 R 0.70 0.24 o 691 0.80 Yes Yes
2017BE29 O C H 2017-01-30.41465 1.000E-05 10:18:46.350 1.500E-01 0.500 F 0.199 -0.467 -02° 03' 20.40" 1.000E-01 0.500 F 0.062 -0.699 20.3 R 0.70 0.20 o 691 1.70 Yes Yes
2017AH13 O C H 2017-01-30.42434 1.000E-05 10:18:41.720 1.500E-01 0.500 F 0.130 -0.128 +04° 48' 54.90" 1.000E-01 0.500 F 0.126 -0.137 21.0 R 0.70 0.74 o 691 0.39 Yes Yes
2017BE29 O C H 2017-01-30.42672 1.000E-05 10:18:45.190 1.500E-01 0.500 F 0.199 0.211 -02° 03' 54.30" 1.000E-01 0.500 F 0.062 -0.035 20.2 R 0.70 0.10 o 691 0.43 Yes Yes
2017AC5 O C H 2017-01-30.42990 1.000E-05 10:23:19.870 1.500E-01 0.559 F -0.023 -0.005 -10° 14' 10.50" 1.000E-01 0.559 F 0.178 -0.247 o 691 0.44 Yes No
2017AH13 O C H 2017-01-30.43639 1.000E-05 10:18:37.610 1.500E-01 0.500 F 0.130 0.613 +04° 48' 46.50" 1.000E-01 0.500 F 0.126 -0.105 20.7 R 0.70 0.44 o 691 1.30 Yes Yes
2017BE29 O C H 2017-01-30.43876 1.000E-05 10:18:43.960 1.500E-01 0.500 F 0.199 -0.238 -02° 04' 29.00" 1.000E-01 0.500 F 0.062 -0.265 20.5 R 0.70 0.40 o 691 0.72 Yes Yes
2017AC5 O C H 2017-01-30.44194 1.000E-05 10:23:20.470 1.500E-01 0.559 F -0.023 0.165 -10° 14' 11.80" 1.000E-01 0.559 F 0.178 0.020 20.6 R 0.70 0.72 o 691 0.30 Yes Yes
2017AC5 O C H 2017-01-30.45307 1.000E-05 10:23:21.000 1.500E-01 0.559 F -0.023 -0.070 -10° 14' 13.30" 1.000E-01 0.559 F 0.178 -0.049 20.5 R 0.70 0.62 o 691 0.15 Yes Yes
2000CE59 O C H 2017-01-30.45753 1.000E-05 11:00:35.910 1.500E-01 0.500 F 0.097 0.055 +07° 19' 20.70" 1.000E-01 0.500 F 0.006 0.173 19.0 R 0.70 0.07 o 691 0.36 Yes Yes
2017AC5 O C H 2017-01-30.46462 1.000E-05 10:23:21.580 1.500E-01 0.559 F -0.023 0.096 -10° 14' 14.70" 1.000E-01 0.559 F 0.178 0.019 20.4 R 0.70 0.52 o 691 0.18 Yes Yes
2000CE59 O C H 2017-01-30.46908 1.000E-05 11:00:34.750 1.500E-01 0.500 F 0.097 0.189 +07° 18' 59.70" 1.000E-01 0.500 F 0.006 0.268 19.0 R 0.70 0.07 o 691 0.66 Yes Yes
2017AC5 O C H 2017-01-30.47621 1.000E-05 10:23:22.140 1.500E-01 0.559 F -0.023 -0.101 -10° 14' 16.20" 1.000E-01 0.559 F 0.178 -0.026 20.2 R 0.70 0.32 o 691 0.19 Yes Yes
2000CE59 O C H 2017-01-30.48067 1.000E-05 11:00:33.580 1.500E-01 0.500 F 0.097 0.198 +07° 18' 38.30" 1.000E-01 0.500 F 0.006 0.059 19.0 R 0.70 0.08 o 691 0.41 Yes Yes
2014YS50 O C H 2017-01-30.49545 1.000E-05 12:18:58.330 1.500E-01 0.500 F 0.227 -0.017 -09° 38' 46.50" 1.000E-01 0.500 F -0.138 0.094 o 691 0.19 Yes No
2014YS50 O C H 2017-01-30.50816 1.000E-05 12:18:59.270 1.500E-01 0.500 F 0.227 -0.132 -09° 39' 15.50" 1.000E-01 0.500 F -0.138 1.066 o 691 2.15 Yes No
2014YS50 O C H 2017-01-30.52087 1.000E-05 12:19:00.240 1.500E-01 0.500 F 0.227 0.168 -09° 39' 46.50" 1.000E-01 0.500 F -0.138 0.020 o 691 0.34 Yes No
2016VV3 O C H 2017-01-30.52787 1.000E-05 13:35:20.880 1.500E-01 0.500 F 0.187 0.158 +00° 44' 27.40" 1.000E-01 0.500 F 0.186 0.148 20.9 R 0.70 0.38 o 691 0.44 Yes Yes
2017BP31 O C H 2017-01-30.53123 1.000E-05 12:29:58.060 1.500E-01 0.500 F 0.266 0.238 +01° 41' 12.10" 1.000E-01 0.500 F 0.234 0.425 19.8 R 0.70 -0.05 o 691 0.98 Yes Yes
2016VV3 O C H 2017-01-30.53813 1.000E-05 13:35:21.440 1.500E-01 0.500 F 0.187 0.107 +00° 44' 26.10" 1.000E-01 0.500 F 0.186 -0.054 20.8 R 0.70 0.28 o 691 0.24 Yes Yes
2017BP31 O C H 2017-01-30.54148 1.000E-05 12:30:00.320 1.500E-01 0.500 F 0.266 -0.447 +01° 41' 00.40" 1.000E-01 0.500 F 0.234 0.121 19.9 R 0.70 0.05 o 691 0.93 Yes Yes
2016VV3 O C H 2017-01-30.54835 1.000E-05 13:35:21.990 1.500E-01 0.500 F 0.187 -0.062 +00° 44' 25.10" 1.000E-01 0.500 F 0.186 0.038 20.7 R 0.70 0.18 o 691 0.15 Yes Yes
2017BP31 O C H 2017-01-30.55171 1.000E-05 12:30:02.640 1.500E-01 0.500 F 0.266 -0.211 +01° 40' 48.80" 1.000E-01 0.500 F 0.234 -0.098 20.2 R 0.70 0.35 o 691 0.47 Yes Yes
2017BR31 O C H 2017-01-31.20241 1.000E-05 03:47:35.850 1.500E-01 0.500 F -0.154 0.757 -05° 18' 53.90" 1.000E-01 0.500 F 0.215 0.054 20.6 R 0.70 0.03 o 691 1.52 Yes Yes
2017BR31 O C H 2017-01-31.24959 1.000E-05 03:47:58.460 1.500E-01 0.500 F -0.154 1.870 -05° 18' 31.00" 1.000E-01 0.500 F 0.215 0.040 o 691 3.73 No No
2017AM4 O C 2017-01-31.31022 1.000E-05 08:12:28.720 1.500E-01 0.500 F -0.080 -0.369 +13° 00' 01.00" 1.000E-01 0.500 F 0.175 -0.062 20.7 V 0.70 0.16 o 691 0.75 Yes Yes
2017AM4 O C 2017-01-31.31800 1.000E-05 08:12:27.440 1.500E-01 0.500 F -0.080 -0.372 +13° 00' 24.70" 1.000E-01 0.500 F 0.175 0.120 20.1 V 0.70 -0.44 o 691 0.78 Yes Yes
2017AM4 O C 2017-01-31.32579 1.000E-05 08:12:26.150 1.500E-01 0.500 F -0.080 -0.502 +13° 00' 47.80" 1.000E-01 0.500 F 0.175 -0.323 20.6 V 0.70 0.06 o 691 1.20 Yes Yes
2017BX32 O C H 2017-01-31.42895 1.000E-05 09:27:17.830 1.500E-01 0.500 F 0.251 -0.289 +05° 07' 09.60" 1.000E-01 0.500 F 0.237 -0.234 21.7 R 0.70 0.19 o 691 0.75 Yes Yes
2017BX32 O C H 2017-01-31.43259 1.000E-05 09:27:17.980 1.500E-01 0.500 F 0.251 -0.058 +05° 07' 12.30" 1.000E-01 0.500 F 0.237 -0.449 21.6 R 0.70 0.09 o 691 0.93 Yes Yes
2017BX32 O C H 2017-01-31.43623 1.000E-05 09:27:18.100 1.500E-01 0.500 F 0.251 -0.285 +05° 07' 16.70" 1.000E-01 0.500 F 0.237 1.036 21.3 R 0.70 -0.21 o 691 2.19 Yes Yes
2017BE30 O C H 2017-01-31.45429 1.000E-05 09:16:31.330 1.500E-01 0.500 F 0.194 -0.147 +09° 15' 23.90" 1.000E-01 0.500 F 0.184 -0.386 22.1 R 0.70 0.28 o 691 0.83 Yes Yes
2017BE30 O C H 2017-01-31.45794 1.000E-05 09:16:30.660 1.500E-01 0.500 F 0.194 -0.354 +09° 15' 20.60" 1.000E-01 0.500 F 0.184 0.028 22.4 R 0.70 0.58 o 691 0.72 Yes Yes
2017BE30 O C H 2017-01-31.46159 1.000E-05 09:16:30.060 1.500E-01 0.500 F 0.194 0.443 +09° 15' 17.20" 1.000E-01 0.500 F 0.184 0.343 22.1 R 0.70 0.28 o 691 1.13 Yes Yes
2017BM123 O C H 2017-02-01.26834 1.000E-05 09:54:39.050 1.500E-01 0.500 F 0.122 0.379 -06° 11' 32.70" 1.000E-01 0.500 F -0.033 -0.131 21.1 R 0.70 0.44 o 691 0.80 Yes Yes
2017BM123 O C H 2017-02-01.27542 1.000E-05 09:54:39.670 1.500E-01 0.500 F 0.122 0.296 -06° 11' 29.20" 1.000E-01 0.500 F -0.033 0.707 20.8 R 0.70 0.14 o 691 1.54 Yes Yes
2017BM123 O C H 2017-02-01.28248 1.000E-05 09:54:40.210 1.500E-01 0.500 F 0.122 -0.907 -06° 11' 27.10" 1.000E-01 0.500 F -0.033 0.138 20.4 R 0.70 -0.26 o 691 1.84 Yes Yes
2017BY O C H 2017-02-01.29240 1.000E-05 09:43:57.990 1.500E-01 0.500 F 0.000 -0.134 -01° 46' 22.50" 1.000E-01 0.500 F 0.207 -0.025 21.3 R 0.70 0.84 o 691 0.28 Yes Yes
2017AY13 O C H 2017-02-01.29565 1.000E-05 09:46:20.500 1.500E-01 0.500 F 0.017 -0.517 -01° 24' 19.40" 1.000E-01 0.500 F 0.247 0.365 21.1 R 0.70 0.42 o 691 1.29 Yes Yes
2017BY O C H 2017-02-01.30185 1.000E-05 09:43:56.370 1.500E-01 0.500 F 0.000 -0.358 -01° 46' 13.90" 1.000E-01 0.500 F 0.207 0.384 21.2 R 0.70 0.74 o 691 1.07 Yes Yes
2017AY13 O C H 2017-02-01.30509 1.000E-05 09:46:19.420 1.500E-01 0.500 F 0.017 0.016 -01° 24' 04.50" 1.000E-01 0.500 F 0.247 -0.128 20.9 R 0.70 0.22 o 691 0.27 Yes Yes
2017BY O C H 2017-02-01.31130 1.000E-05 09:43:54.730 1.500E-01 0.500 F 0.000 -0.788 -01° 46' 05.80" 1.000E-01 0.500 F 0.207 0.283 21.2 R 0.70 0.74 o 691 1.70 Yes Yes
2017AY13 O C H 2017-02-01.31454 1.000E-05 09:46:18.310 1.500E-01 0.500 F 0.017 0.133 -01° 23' 48.60" 1.000E-01 0.500 F 0.247 0.363 21.3 R 0.70 0.62 o 691 0.81 Yes Yes
2017BM92 O C H 2017-02-01.31812 1.000E-05 11:02:07.530 1.500E-01 0.500 F 0.221 0.315 +08° 09' 21.40" 1.000E-01 0.500 F -0.002 0.515 20.9 R 0.70 0.01 o 691 1.23 Yes Yes
2017BM92 O C H 2017-02-01.33088 1.000E-05 11:02:03.980 1.500E-01 0.500 F 0.221 -0.102 +08° 08' 00.70" 1.000E-01 0.500 F -0.002 -0.468 20.9 R 0.70 0.01 o 691 0.97 Yes Yes
2017BM92 O C H 2017-02-01.34371 1.000E-05 11:02:00.450 1.500E-01 0.500 F 0.221 0.222 +08° 06' 40.50" 1.000E-01 0.500 F -0.002 -0.463 20.7 R 0.70 -0.19 o 691 1.04 Yes Yes
2017BD30 O C H 2017-02-01.36593 1.000E-05 08:33:21.170 1.500E-01 0.500 F 0.089 -0.859 +09° 56' 18.70" 1.000E-01 0.500 F 0.056 -1.001 o 691 2.75 Yes No
2017BL30 O C H 2017-02-01.36846 1.000E-05 08:56:16.950 1.500E-01 0.500 F 0.124 -0.085 +16° 52' 36.90" 1.000E-01 0.500 F 0.219 -0.004 19.4 R 0.70 0.40 o 691 0.17 Yes Yes
2017BS6 O C H 2017-02-01.37098 1.000E-05 08:08:55.870 1.500E-01 0.500 F 0.097 0.457 +03° 43' 19.40" 1.000E-01 0.500 F 0.001 0.480 20.5 R 0.70 -0.14 o 691 1.33 Yes Yes
2017BD30 O C H 2017-02-01.37319 1.000E-05 08:33:18.930 1.500E-01 0.500 F 0.089 -2.938 +09° 56' 15.70" 1.000E-01 0.500 F 0.056 0.045 o 691 5.67 No No
2017BL30 O C H 2017-02-01.37572 1.000E-05 08:56:15.380 1.500E-01 0.500 F 0.124 -0.208 +16° 52' 33.20" 1.000E-01 0.500 F 0.219 -0.123 19.2 R 0.70 0.20 o 691 0.48 Yes Yes
2017BS6 O C H 2017-02-01.37824 1.000E-05 08:08:54.140 1.500E-01 0.500 F 0.097 -0.098 +03° 42' 57.20" 1.000E-01 0.500 F 0.001 0.342 20.6 R 0.70 -0.04 o 691 0.72 Yes Yes
2017BD30 O C H 2017-02-01.38045 1.000E-05 08:33:16.960 1.500E-01 0.500 F 0.089 -1.056 +09° 56' 11.50" 1.000E-01 0.500 F 0.056 -0.106 21.7 R 0.70 0.83 o 691 2.22 Yes Yes
2017BL30 O C H 2017-02-01.38299 1.000E-05 08:56:13.820 1.500E-01 0.500 F 0.124 -0.188 +16° 52' 29.60" 1.000E-01 0.500 F 0.219 -0.104 19.1 R 0.70 0.10 o 691 0.43 Yes Yes
2017BS6 O C H 2017-02-01.38550 1.000E-05 08:08:52.460 1.500E-01 0.500 F 0.097 0.056 +03° 42' 35.10" 1.000E-01 0.500 F 0.001 0.307 20.6 R 0.70 -0.04 o 691 0.63 Yes Yes
2017BX5 O C H 2017-02-01.38950 1.000E-05 09:27:47.890 1.500E-01 0.500 F 0.037 0.096 +11° 56' 07.90" 1.000E-01 0.500 F 0.259 0.269 o 691 0.58 Yes No
2017BX5 O C H 2017-02-01.39706 1.000E-05 09:27:50.970 1.500E-01 0.500 F 0.037 0.136 +11° 56' 19.30" 1.000E-01 0.500 F 0.259 -0.054 20.9 R 0.70 0.33 o 691 0.30 Yes Yes
2017BX5 O C H 2017-02-01.40459 1.000E-05 09:27:54.080 1.500E-01 0.500 F 0.037 0.710 +11° 56' 31.20" 1.000E-01 0.500 F 0.259 0.204 21.0 R 0.70 0.43 o 691 1.50 Yes Yes
2017AH13 O C H 2017-02-01.45478 1.000E-05 10:07:26.690 1.500E-01 0.500 F 0.247 -0.344 +04° 26' 15.20" 1.000E-01 0.500 F 0.199 -0.247 21.0 R 0.70 0.77 o 691 0.87 Yes Yes
2011EP51 O C H 2017-02-01.45678 1.000E-05 10:08:20.370 1.500E-01 0.500 F -0.029 2.361 -07° 11' 13.20" 1.000E-01 0.500 F 0.005 0.662 21.1 R 0.70 -0.01 o 691 4.89 No Yes
2017BE29 O C H 2017-02-01.45910 1.000E-05 10:15:35.000 1.500E-01 0.612 F 0.139 0.198 -03° 40' 05.50" 1.000E-01 0.612 F 0.094 0.499 19.6 R 0.70 -0.46 o 691 0.88 Yes Yes
2017AH13 O C H 2017-02-01.46150 1.000E-05 10:07:24.480 1.500E-01 0.500 F 0.247 0.184 +04° 26' 10.90" 1.000E-01 0.500 F 0.199 -0.198 21.2 R 0.70 0.97 o 691 0.56 Yes Yes
2011EP51 O C H 2017-02-01.46349 1.000E-05 10:08:16.960 1.500E-01 0.500 F -0.029 1.787 -07° 10' 47.70" 1.000E-01 0.500 F 0.005 -1.428 o 691 4.56 No No
2017BE29 O C H 2017-02-01.46582 1.000E-05 10:15:34.290 1.500E-01 0.612 F 0.139 0.072 -03° 40' 24.50" 1.000E-01 0.612 F 0.094 0.362 20.1 R 0.70 0.04 o 691 0.61 Yes Yes
2017AH13 O C H 2017-02-01.46822 1.000E-05 10:07:22.220 1.500E-01 0.500 F 0.247 -0.061 +04° 26' 06.90" 1.000E-01 0.500 F 0.199 0.152 21.1 R 0.70 0.87 o 691 0.34 Yes Yes
2011EP51 O C H 2017-02-01.47021 1.000E-05 10:08:13.510 1.500E-01 0.500 F -0.029 0.614 -07° 10' 18.30" 1.000E-01 0.500 F 0.005 0.319 20.9 R 0.70 -0.20 o 691 1.39 Yes Yes
2017BE29 O C H 2017-02-01.47253 1.000E-05 10:15:33.590 1.500E-01 0.612 F 0.139 0.058 -03° 40' 43.60" 1.000E-01 0.612 F 0.094 0.093 20.3 R 0.70 0.24 o 691 0.18 Yes Yes
2017AC5 O C H 2017-02-01.47573 1.000E-05 10:25:11.930 1.500E-01 0.500 F -0.023 -0.054 -10° 17' 33.90" 1.000E-01 0.500 F 0.178 -0.135 19.8 R 0.70 0.03 o 691 0.29 Yes Yes
2017BQ30 O C H 2017-02-01.47855 1.000E-05 10:50:49.900 1.500E-01 0.612 F 0.070 -0.265 +03° 50' 30.60" 1.000E-01 0.612 F 0.166 0.202 o 691 0.57 Yes No
2000CE59 O C H 2017-02-01.48115 1.000E-05 10:57:17.700 1.500E-01 0.500 F 0.219 -0.082 +06° 16' 19.10" 1.000E-01 0.500 F 0.058 0.079 18.9 R 0.70 0.12 o 691 0.23 Yes Yes
2017AC5 O C H 2017-02-01.48461 1.000E-05 10:25:12.370 1.500E-01 0.500 F -0.023 -0.031 -10° 17' 34.20" 1.000E-01 0.500 F 0.178 0.023 19.7 R 0.70 -0.07 o 691 0.08 Yes Yes
2017BQ30 O C H 2017-02-01.48745 1.000E-05 10:50:46.740 1.500E-01 0.612 F 0.070 -0.976 +03° 50' 18.60" 1.000E-01 0.612 F 0.166 -0.204 21.2 R 0.70 0.60 o 691 1.72 Yes Yes
2000CE59 O C H 2017-02-01.49005 1.000E-05 10:57:16.680 1.500E-01 0.500 F 0.219 -0.045 +06° 16' 01.90" 1.000E-01 0.500 F 0.058 0.043 18.8 R 0.70 0.02 o 691 0.12 Yes Yes
2017AC5 O C H 2017-02-01.49350 1.000E-05 10:25:12.800 1.500E-01 0.500 F -0.023 -0.193 -10° 17' 34.40" 1.000E-01 0.500 F 0.178 0.270 19.6 R 0.70 -0.17 o 691 0.67 Yes Yes
2017BQ30 O C H 2017-02-01.49633 1.000E-05 10:50:43.760 1.500E-01 0.612 F 0.070 0.661 +03° 50' 08.00" 1.000E-01 0.612 F 0.166 0.761 20.7 R 0.70 0.10 o 691 1.73 Yes Yes
2000CE59 O C H 2017-02-01.49894 1.000E-05 10:57:15.670 1.500E-01 0.500 F 0.219 0.088 +06° 15' 44.80" 1.000E-01 0.500 F 0.058 0.101 18.9 R 0.70 0.12 o 691 0.27 Yes Yes
2017BQ30 O C H 2017-02-01.50728 1.000E-05 10:50:39.930 1.500E-01 0.612 F 0.070 0.000 +03° 49' 52.90" 1.000E-01 0.612 F 0.166 -0.080 21.1 R 0.70 0.50 o 691 0.14 Yes Yes
2017BE29 O C H 2017-02-01.50968 1.000E-05 10:15:29.740 1.500E-01 0.612 F 0.139 -0.084 -03° 42' 28.30" 1.000E-01 0.612 F 0.094 -0.412 20.0 R 0.70 -0.06 o 691 0.69 Yes Yes
2017BQ30 O C H 2017-02-01.51577 1.000E-05 10:50:37.000 1.500E-01 0.612 F 0.070 -0.205 +03° 49' 42.00" 1.000E-01 0.612 F 0.166 0.071 22.0 R 0.70 1.40 o 691 0.37 Yes Yes
2017BE29 O C H 2017-02-01.51817 1.000E-05 10:15:28.870 1.500E-01 0.612 F 0.139 -0.091 -03° 42' 52.10" 1.000E-01 0.612 F 0.094 -0.414 20.1 R 0.70 0.04 o 691 0.70 Yes Yes
2017BQ30 O C H 2017-02-01.52423 1.000E-05 10:50:34.170 1.500E-01 0.612 F 0.070 0.673 +03° 49' 30.90" 1.000E-01 0.612 F 0.166 -0.020 20.8 R 0.70 0.20 o 691 1.17 Yes Yes
2017BE29 O C H 2017-02-01.52663 1.000E-05 10:15:27.990 1.500E-01 0.612 F 0.139 -0.342 -03° 43' 16.10" 1.000E-01 0.612 F 0.094 -0.706 o 691 1.29 Yes No
2003CR1 O C H 2017-02-01.53108 1.000E-05 11:33:15.150 1.500E-01 0.500 F 0.250 -0.027 -09° 36' 52.60" 1.000E-01 0.500 F 0.063 -0.055 17.4 R 0.70 -0.16 o 691 0.12 Yes Yes
2017BF29 O C H 2017-02-01.53313 1.000E-05 11:39:07.440 1.500E-01 0.500 F 0.189 0.717 -08° 43' 55.20" 1.000E-01 0.500 F 0.016 -1.922 o 691 4.08 No No
2003CR1 O C H 2017-02-01.53841 1.000E-05 11:33:11.790 1.500E-01 0.500 F 0.250 -0.032 -09° 37' 02.50" 1.000E-01 0.500 F 0.063 0.024 17.4 R 0.70 -0.16 o 691 0.08 Yes Yes
2017BF29 O C H 2017-02-01.54046 1.000E-05 11:39:08.690 1.500E-01 0.500 F 0.168 1.174 -08° 44' 29.10" 1.000E-01 0.500 F -0.020 -0.642 o 691 2.69 Yes No
2003CR1 O C H 2017-02-01.54572 1.000E-05 11:33:08.460 1.500E-01 0.500 F 0.250 0.192 -09° 37' 12.40" 1.000E-01 0.500 F 0.063 0.054 17.4 R 0.70 -0.16 o 691 0.40 Yes Yes
2017BF29 O C H 2017-02-01.54778 1.000E-05 11:39:10.000 1.500E-01 0.500 F 0.168 2.345 -08° 45' 03.20" 1.000E-01 0.500 F -0.020 0.318 o 691 4.72 No No
2016XD1 O C H 2017-02-02.11094 1.000E-05 04:35:32.580 1.500E-01 0.612 F -0.187 -0.058 +19° 17' 47.50" 1.000E-01 0.612 F 0.197 -0.106 20.1 R 0.70 0.64 o 691 0.20 Yes Yes
2016PZ66 O C H 2017-02-02.11382 1.000E-05 04:51:27.060 1.500E-01 0.500 F -0.166 0.060 -04° 41' 13.00" 1.000E-01 0.500 F 0.026 -0.091 20.1 R 0.70 -0.04 o 691 0.22 Yes Yes
2016XD1 O C 2017-02-02.11738 1.000E-05 04:35:33.220 1.500E-01 0.612 F -0.187 -0.245 +19° 17' 37.60" 1.000E-01 0.612 F 0.197 0.047 o 691 0.41 Yes No
2017BL31 O C H 2017-02-02.11738 1.000E-05 04:33:28.870 1.500E-01 0.500 F -0.145 0.187 +19° 00' 51.20" 1.000E-01 0.500 F 0.201 -0.082 o 691 0.41 Yes No
2016XD1 O C H 2017-02-02.12033 1.000E-05 04:35:33.530 1.500E-01 0.612 F -0.187 -0.092 +19° 17' 32.90" 1.000E-01 0.612 F 0.197 -0.046 20.0 R 0.70 0.54 o 691 0.17 Yes Yes
2016PZ66 O C H 2017-02-02.12319 1.000E-05 04:51:28.070 1.500E-01 0.500 F -0.166 0.077 -04° 41' 18.50" 1.000E-01 0.500 F 0.026 -0.836 19.6 R 0.70 -0.54 o 691 1.69 Yes Yes
2016XD1 O C 2017-02-02.12675 1.000E-05 04:35:34.170 1.500E-01 0.612 F -0.187 -0.249 +19° 17' 22.90" 1.000E-01 0.612 F 0.197 -0.013 o 691 0.41 Yes No
2017BL31 O C H 2017-02-02.12675 1.000E-05 04:33:27.760 1.500E-01 0.500 F -0.145 -0.905 +19° 00' 56.00" 1.000E-01 0.500 F 0.201 0.072 o 691 1.82 Yes No
2016XD1 O C H 2017-02-02.12970 1.000E-05 04:35:34.480 1.500E-01 0.612 F -0.187 -0.096 +19° 17' 18.50" 1.000E-01 0.612 F 0.197 0.200 20.1 R 0.70 0.64 o 691 0.36 Yes Yes
2016PZ66 O C H 2017-02-02.13257 1.000E-05 04:51:29.060 1.500E-01 0.500 F -0.166 -0.215 -04° 41' 22.50" 1.000E-01 0.500 F 0.026 -0.082 19.9 R 0.70 -0.24 o 691 0.46 Yes Yes
2016XD1 O C 2017-02-02.13612 1.000E-05 04:35:35.180 1.500E-01 0.612 F -0.187 0.596 +19° 17' 07.40" 1.000E-01 0.612 F 0.197 -0.857 o 691 1.71 Yes No
2017BL31 O C H 2017-02-02.13612 1.000E-05 04:33:26.820 1.500E-01 0.500 F -0.145 0.410 +19° 01' 00.60" 1.000E-01 0.500 F 0.201 0.033 o 691 0.82 Yes No
2017AM4 O C H 2017-02-02.14172 1.000E-05 08:07:35.880 1.500E-01 0.500 F -0.075 0.187 +14° 31' 54.90" 1.000E-01 0.500 F 0.153 -0.226 20.7 R 0.70 0.49 o 691 0.59 Yes Yes
2017BM31 O C H 2017-02-02.14441 1.000E-05 07:26:44.920 1.500E-01 0.500 F 0.020 1.107 +19° 29' 04.20" 1.000E-01 0.500 F 0.229 -0.677 o 691 2.60 Yes No
2004KD1 O C 2017-02-02.14673 1.000E-05 07:59:15.110 1.500E-01 0.500 F -0.105 -0.122 +10° 05' 53.40" 1.000E-01 0.500 F -0.043 -0.064 20.4 V 0.70 -0.10 o 691 0.28 Yes Yes
2017AM4 O C H 2017-02-02.14879 1.000E-05 08:07:34.670 1.500E-01 0.500 F -0.075 -0.727 +14° 32' 16.90" 1.000E-01 0.500 F 0.153 0.528 20.7 R 0.70 0.49 o 691 1.80 Yes Yes
2017BM31 O C H 2017-02-02.15149 1.000E-05 07:26:43.880 1.500E-01 0.500 F 0.020 -0.225 +19° 29' 10.20" 1.000E-01 0.500 F 0.229 -0.458 o 691 1.02 Yes No
2004KD1 O C 2017-02-02.15381 1.000E-05 07:59:14.480 1.500E-01 0.500 F -0.105 -0.053 +10° 05' 54.20" 1.000E-01 0.500 F -0.043 0.085 21.1 V 0.70 0.60 o 691 0.20 Yes Yes
2017AM4 O C H 2017-02-02.15587 1.000E-05 08:07:33.490 1.500E-01 0.500 F -0.075 -1.169 +14° 32' 38.90" 1.000E-01 0.500 F 0.153 1.257 21.5 R 0.70 1.29 o 691 3.43 No Yes
2017BM31 O C H 2017-02-02.15856 1.000E-05 07:26:42.940 1.500E-01 0.500 F 0.020 -0.146 +19° 29' 16.30" 1.000E-01 0.500 F 0.229 -0.124 21.4 R 0.70 0.51 o 691 0.38 Yes Yes
2004KD1 O C 2017-02-02.16088 1.000E-05 07:59:13.840 1.500E-01 0.500 F -0.105 -0.138 +10° 05' 54.70" 1.000E-01 0.500 F -0.043 -0.063 20.6 V 0.70 0.10 o 691 0.30 Yes Yes
2017BP30 O C H 2017-02-02.16402 1.000E-05 07:59:35.920 1.500E-01 0.500 F -0.082 -0.271 +09° 21' 30.60" 1.000E-01 0.500 F -0.092 -0.836 21.9 R 0.70 1.78 o 691 1.87 Yes Yes
2017BP30 O C H 2017-02-02.17352 1.000E-05 07:59:33.600 1.500E-01 0.500 F -0.082 0.399 +09° 19' 21.30" 1.000E-01 0.500 F -0.092 3.387 21.6 R 0.70 1.48 o 691 6.45 No Yes
2017BP30 O C H 2017-02-02.18303 1.000E-05 07:59:31.220 1.500E-01 0.500 F -0.072 0.571 +09° 17' 07.90" 1.000E-01 0.500 F -0.080 3.859 21.2 R 0.70 1.08 o 691 7.37 No Yes
2017AG5 O C H 2017-02-02.19337 1.000E-05 07:44:26.670 1.500E-01 0.500 F -0.070 0.075 +27° 54' 17.20" 1.000E-01 0.500 F 0.198 0.081 18.0 R 0.70 -1.61 o 691 0.22 Yes Yes
2016PN38 O C H 2017-02-02.19598 1.000E-05 08:28:26.140 1.500E-01 0.500 F 0.083 0.211 +25° 08' 43.00" 1.000E-01 0.500 F 0.272 0.074 21.1 R 0.70 0.23 o 691 0.45 Yes Yes
2017BH3 O C H 2017-02-02.19853 1.000E-05 09:13:49.750 1.500E-01 0.500 F 0.077 0.003 +21° 08' 48.70" 1.000E-01 0.500 F 0.210 1.079 21.9 R 0.70 0.96 o 691 2.28 Yes Yes
2017AG5 O C H 2017-02-02.20139 1.000E-05 07:44:26.930 1.500E-01 0.500 F -0.070 0.136 +27° 54' 14.20" 1.000E-01 0.500 F 0.198 -0.100 o 691 0.34 Yes No
2016PN38 O C H 2017-02-02.20399 1.000E-05 08:28:25.470 1.500E-01 0.500 F 0.083 -0.207 +25° 08' 40.40" 1.000E-01 0.500 F 0.272 -0.069 21.2 R 0.70 0.33 o 691 0.44 Yes Yes
2017BH3 O C H 2017-02-02.20656 1.000E-05 09:13:50.080 1.500E-01 0.500 F 0.077 0.271 +21° 09' 25.60" 1.000E-01 0.500 F 0.210 1.145 21.7 R 0.70 0.76 o 691 2.48 Yes Yes
2017AG5 O C H 2017-02-02.20942 1.000E-05 07:44:27.190 1.500E-01 0.500 F -0.070 0.232 +27° 54' 11.00" 1.000E-01 0.500 F 0.198 -0.432 o 691 0.98 Yes No
2016PN38 O C H 2017-02-02.21203 1.000E-05 08:28:24.830 1.500E-01 0.500 F 0.083 -0.169 +25° 08' 38.20" 1.000E-01 0.500 F 0.272 0.210 21.2 R 0.70 0.33 o 691 0.54 Yes Yes
2017BH3 O C H 2017-02-02.21459 1.000E-05 09:13:50.410 1.500E-01 0.500 F 0.077 0.613 +21° 10' 05.00" 1.000E-01 0.500 F 0.210 3.736 o 691 7.21 No No

[1-200] [201-400] [401-600] [601-800] [801-1000] [1001-1200] [1201-1400] [1401-1600] [1601-1800] [1801-2000] [2001-2200] [2201-2400] [2401-2600] [2601-2800] [2801-3000] [3001-3200] [3201-3400] [3401-3600] [3601-3800] [3801-4000] [4001-4200] [4201-4400] [4401-4600] [4601-4800] [4801-5000] [5001-5200] [5201-5400] [5401-5600] [5601-5800] [5801-6000] [6001-6200] [6201-6400] [6401-6600] [6601-6800] [6801-7000] [7001-7200] [7201-7400] [7401-7600] [7601-7800] [7801-8000] [8001-8200] [8201-8400] [8401-8600] [8601-8800] [8801-9000] [9001-9200] [9201-9400] [9401-9600] [9601-9800] [9801-10000] [10001-10200] [10201-10400] [10401-10600] [10601-10800] [10801-11000] [11001-11200] [11201-11400] [11401-11600] [11601-11800] [11801-12000] [12001-12200] [12201-12400] [12401-12600] [12601-12800] [12801-13000] [13001-13200] [13201-13400] [13401-13600] [13601-13800] [13801-14000] [14001-14200] [14201-14400] [14401-14600] [14601-14800] [14801-15000] [15001-15200] [15201-15400] [15401-15600] [15601-15800] [15801-16000] [16001-16200] [16201-16400] [16401-16600] [16601-16800] [16801-17000] [17001-17200] [17201-17400] [17401-17600] [17601-17800] [17801-18000] [18001-18200] [18201-18400] [18401-18600] [18601-18800] [18801-19000] [19001-19200] [19201-19400] [19401-19600] [19601-19800] [19801-20000] [20001-20200] [20201-20400] [20401-20600] [20601-20800] [20801-21000] [21001-21200] [21201-21400] [21401-21600] [21601-21800] [21801-22000] [22001-22200] [22201-22400] [22401-22600] [22601-22800] [22801-23000] [23001-23200] [23201-23400] [23401-23600] [23601-23800] [23801-24000] [24001-24200] [24201-24400] [24401-24600] [24601-24800] [24801-25000] [25001-25200] [25201-25400] [25401-25600] [25601-25800] [25801-26000] [26001-26200] [26201-26400] [26401-26600] [26601-26800] [26801-27000] [27001-27200] [27201-27400] [27401-27600] [27601-27800] [27801-28000] [28001-28200] [28201-28400] [28401-28600] [28601-28800] [28801-29000] [29001-29200] [29201-29400] [29401-29600] [29601-29800] [29801-30000] [30001-30200] [30201-30400] [30401-30600] [30601-30800] [30801-31000] [31001-31200] [31201-31400] [31401-31600] [31601-31800] [31801-32000] [32001-32200] [32201-32400] [32401-32600] [32601-32800] [32801-33000] [33001-33200] [33201-33400] [33401-33600] [33601-33800] [33801-34000] [34001-34200] [34201-34400] [34401-34600] [34601-34800] [34801-35000] [35001-35200] [35201-35400] [35401-35600] [35601-35800] [35801-36000] [36001-36200] [36201-36400] [36401-36600] [36601-36800] [36801-37000] [37001-37200] [37201-37400] [37401-37600] [37601-37800] [37801-38000] [38001-38200] [38201-38400] [38401-38600] [38601-38800] [38801-39000] [39001-39200] [39201-39400] [39401-39600] [39601-39800] [39801-40000] [40001-40200] [40201-40400] [40401-40600] [40601-40800] [40801-41000] [41001-41200] [41201-41400] [41401-41600] [41601-41800] [41801-42000] [42001-42200] [42201-42400] [42401-42600] [42601-42800] [42801-43000] [43001-43200] [43201-43400] [43401-43600] [43601-43800] [43801-44000] [44001-44200] [44201-44400] [44401-44600] [44601-44800] [44801-45000] [45001-45200] [45201-45400] [45401-45600] [45601-45800] [45801-46000] [46001-46200] [46201-46400] [46401-46600] [46601-46800] [46801-47000] [47001-47200] [47201-47400] [47401-47600] [47601-47800] [47801-48000] [48001-48200] [48201-48400] [48401-48600] [48601-48800] [48801-49000] [49001-49200] [49201-49400] [49401-49600] [49601-49800] [49801-50000] [50001-50200] [50201-50388]